Flight Track Log - Related Links

Times and Time Zones

All times are in EST time to prevent confusion due to time zone crossing. See the N999TF flight status page for this flight to view local times or setup timezone preferences in your user account.

Time Position Orientation Groundspeed Altitude Reporting Facility
EST Latitude Longitude Course Direction KTS MPH feet Rate Location/Type
Thu 05:16:25 PM 45.5478 -122.4225 215° Southwest 108 124 700  Level Seattle Center
Thu 05:17:02 PM 45.5328 -122.4347 210° Southwest 110 127 1,900 1,442 Climbing Seattle Center
Thu 05:18:09 PM 45.4969 -122.4494 196° South 131 151 3,200 1,008 Climbing Seattle Center
Thu 05:19:01 PM 45.4650 -122.4628 196° South 135 155 3,900 689 Climbing Seattle Center
Thu 05:19:10 PM 45.4608 -122.4644 196° South 149 171 3,900  Level Seattle Center
Thu 05:20:02 PM 45.4467 -122.5158 249° West 169 194 3,900  Level Seattle Center
Thu 05:20:10 PM 45.4478 -122.5281 277° West 184 212 3,900  Level Seattle Center
Thu 05:21:00 PM 45.3678 -122.6235 215° Southwest  Level Estimated
Thu 05:21:03 PM 45.4533 -122.5847 278° West 174 200 3,900  Level Seattle Center
Thu 05:21:11 PM 45.4506 -122.5947 248° West 173 199 3,900 -98 Level Seattle Center
Thu 05:22:04 PM 45.4183 -122.6236 212° Southwest 170 196 3,800  Descending Seattle Center
Thu 05:22:12 PM 45.4119 -122.6292 211° Southwest 167 192 3,900 98 Climbing Seattle Center
Thu 05:23:05 PM 45.3725 -122.6447 195° South 164 189 3,900  Level Seattle Center
Thu 05:23:13 PM 45.3678 -122.6469 198° South 166 191 3,900 87 Level Seattle Center
Thu 05:24:14 PM 45.3358 -122.6169 147° Southeast 170 196 4,000 -313 Climbing Seattle Center
Thu 05:25:08 PM 45.3753 -122.5925 24° Northeast 180 207 3,300 -787 Descending Seattle Center
Thu 05:25:15 PM 45.3833 -122.5944 350° North 187 215 3,200 -265 Descending Seattle Center
Thu 05:26:16 PM 45.4300 -122.5908 North 172 198 3,000 -157 Descending Seattle Center
Thu 05:27:10 PM 45.4597 -122.6225 323° Northwest 163 188 2,900 -100 Descending Seattle Center
Thu 05:27:16 PM 45.4594 -122.6281 266° West 161 185 2,900  Level Seattle Center
Thu 05:28:11 PM 45.4750 -122.6822 292° West 160 184 2,900  Level Seattle Center
Thu 05:28:17 PM 45.4739 -122.6900 258° West 158 182 2,900  Level Seattle Center
Thu 05:29:12 PM 45.4422 -122.7208 214° Southwest 157 181 2,900  Level Seattle Center
Thu 05:29:18 PM 45.4400 -122.7253 235° Southwest 156 180 2,900 -98 Level Seattle Center
Thu 05:30:13 PM 45.4028 -122.7403 196° South 152 175 2,800 -98 Descending Seattle Center
Thu 05:30:19 PM 45.3997 -122.7417 198° South 155 178 2,800 -393 Level Seattle Center
Thu 05:31:14 PM 45.3603 -122.7489 187° South 155 178 2,400 -590 Descending Seattle Center
Thu 05:31:20 PM 45.3542 -122.7508 193° South 154 177 2,200 -716 Descending Seattle Center
Thu 05:32:21 PM 45.3189 -122.7589 189° South 141 162 1,600 -462 Descending Seattle Center
Thu 05:33:17 PM 45.2894 -122.7619 184° South 116 133 1,300 -321 Descending Seattle Center

Login

Don't have an account? Register now (free) for customized features, flight alerts, and more!